Time;durP1;ratioP1;P1;durP2;ratioP2;P2;SDS_P1;SDS_P2;PMS_P1;PMS_P2;Temp;Humidity;BMP_temperature;BMP_pressure;BME280_temperature;BME280_humidity;BME280_pressure;Samples;Min_cycle;Max_cycle;Signal;HPM_P1;HPM_P2
2023/09/20 00:02:21;;;;;;;5.05;1.60;;;;;;;19.42;60.09;99303.03;5044818;28;20048;-79
2023/09/20 00:04:47;;;;;;;4.28;1.83;;;;;;;19.39;59.90;99317.50;5044274;28;20044;-79
2023/09/20 00:07:13;;;;;;;5.65;2.05;;;;;;;19.43;59.94;99307.38;5044638;28;20036;-79
2023/09/20 00:09:38;;;;;;;4.82;1.92;;;;;;;19.33;60.02;99305.00;5044829;28;20033;-79
2023/09/20 00:12:04;;;;;;;6.68;2.45;;;;;;;19.39;60.05;99295.38;5044763;28;20041;-80
2023/09/20 00:14:29;;;;;;;4.18;1.90;;;;;;;19.37;60.01;99305.97;5044570;28;20167;-79
2023/09/20 00:16:55;;;;;;;5.25;2.20;;;;;;;19.33;60.35;99300.31;5044760;28;20036;-80
2023/09/20 00:19:20;;;;;;;9.77;2.05;;;;;;;19.34;60.62;99307.44;5044411;28;20437;-79
2023/09/20 00:21:46;;;;;;;6.63;1.57;;;;;;;19.31;60.57;99301.78;5044758;28;20504;-80
2023/09/20 00:24:11;;;;;;;6.85;1.63;;;;;;;19.31;60.73;99302.59;5043966;28;20294;-80
2023/09/20 00:26:37;;;;;;;7.95;1.83;;;;;;;19.33;60.61;99316.06;5044782;28;20545;-80
2023/09/20 00:29:05;;;;;;;5.50;2.33;;;;;;;19.37;60.46;99305.97;5043911;28;20037;-80
2023/09/20 00:31:33;;;;;;;4.90;2.45;;;;;;;19.34;60.59;99301.13;5044590;28;20490;-79
2023/09/20 00:34:03;;;;;;;5.22;1.80;;;;;;;19.27;60.77;99295.31;5042776;28;20143;-79
2023/09/20 00:36:29;;;;;;;3.53;1.65;;;;;;;19.10;61.11;99297.03;5043160;28;20047;-78
2023/09/20 00:38:57;;;;;;;6.07;2.25;;;;;;;19.21;61.06;99309.31;5044259;28;20509;-76
2023/09/20 00:41:22;;;;;;;6.35;2.13;;;;;;;19.22;61.31;99304.63;5043820;28;20045;-79
2023/09/20 00:43:47;;;;;;;8.25;1.83;;;;;;;19.25;61.25;99296.47;5044117;28;20403;-78
2023/09/20 00:46:13;;;;;;;4.73;1.80;;;;;;;19.23;61.17;99300.69;5051424;28;20023;-80
2023/09/20 00:48:39;;;;;;;3.38;1.40;;;;;;;19.28;61.47;99302.47;5051160;28;20861;-79
2023/09/20 00:51:06;;;;;;;6.85;2.33;;;;;;;19.21;61.63;99295.50;5050404;28;20025;-78
2023/09/20 00:53:32;;;;;;;6.75;1.63;;;;;;;19.23;61.24;99289.63;5050619;28;20032;-80
2023/09/20 00:56:02;;;;;;;8.70;1.92;;;;;;;19.24;61.45;99296.81;5051010;28;20036;-82
2023/09/20 00:58:29;;;;;;;13.05;3.90;;;;;;;19.27;61.63;99289.78;5049982;28;20021;-79
2023/09/20 01:00:55;;;;;;;4.85;1.20;;;;;;;19.26;61.52;99300.03;5051044;28;20025;-80
2023/09/20 01:03:22;;;;;;;4.68;1.75;;;;;;;19.23;61.86;99293.22;5050446;28;20120;-80
2023/09/20 01:05:48;;;;;;;5.95;2.28;;;;;;;19.27;61.84;99282.31;5050454;28;20055;-79
2023/09/20 01:08:19;;;;;;;5.35;1.65;;;;;;;19.15;61.88;99288.56;5051338;28;20021;-80
2023/09/20 01:10:45;;;;;;;8.27;2.17;;;;;;;19.20;62.07;99301.38;5049965;28;20610;-80
2023/09/20 01:13:12;;;;;;;5.60;1.77;;;;;;;19.21;62.19;99298.28;5051469;28;20086;-81
2023/09/20 01:15:38;;;;;;;5.13;2.00;;;;;;;19.24;62.07;99302.31;5049949;28;20037;-81
2023/09/20 01:18:04;;;;;;;7.97;1.85;;;;;;;19.22;62.02;99305.41;5049359;28;20021;-80
2023/09/20 01:20:37;;;;;;;9.10;2.33;;;;;;;19.31;62.26;99296.25;5050366;28;20075;-81
2023/09/20 01:23:02;;;;;;;8.65;2.17;;;;;;;19.27;62.12;99295.31;5050323;28;20045;-79
2023/09/20 01:25:33;;;;;;;6.25;1.85;;;;;;;19.26;62.30;99289.00;5050998;28;20481;-80
2023/09/20 01:28:01;;;;;;;4.97;1.70;;;;;;;19.19;62.40;99295.03;5048745;28;20835;-81
2023/09/20 01:30:28;;;;;;;11.50;1.90;;;;;;;19.16;62.61;99284.63;5045237;28;20090;-80
2023/09/20 01:32:55;;;;;;;8.05;1.90;;;;;;;19.10;62.88;99286.75;5045089;28;20048;-80
2023/09/20 01:35:21;;;;;;;11.60;2.00;;;;;;;19.02;62.88;99284.84;5047793;28;20025;-82
2023/09/20 01:37:49;;;;;;;8.45;1.50;;;;;;;19.13;63.32;99279.75;5049263;28;20032;-80
2023/09/20 01:40:18;;;;;;;10.95;2.00;;;;;;;19.20;62.68;99279.28;5050920;28;20029;-79
2023/09/20 01:42:50;;;;;;;6.80;1.80;;;;;;;19.23;62.76;99284.13;5051748;28;20024;-80
2023/09/20 01:45:19;;;;;;;6.68;1.90;;;;;;;19.18;62.93;99276.81;5051515;28;20476;-80
2023/09/20 01:47:47;;;;;;;6.13;2.80;;;;;;;19.24;62.71;99292.06;5052063;28;20021;-81
2023/09/20 01:50:19;;;;;;;9.05;1.85;;;;;;;19.23;62.73;99284.94;5052377;28;20040;-80
2023/09/20 01:52:48;;;;;;;9.27;2.20;;;;;;;19.22;62.72;99282.50;5051264;28;20032;-80
2023/09/20 01:55:17;;;;;;;8.02;1.77;;;;;;;19.23;62.92;99284.13;5051064;28;20776;-80
2023/09/20 01:57:45;;;;;;;2.78;1.33;;;;;;;19.25;62.68;99277.13;5051753;28;20033;-80
2023/09/20 02:03:19;;;;;;;9.57;2.92;;;;;;;19.17;63.03;99266.94;5043985;28;20490;-81
2023/09/20 02:05:47;;;;;;;7.30;2.22;;;;;;;19.13;63.47;99274.25;5051703;28;20079;-80
2023/09/20 02:08:12;;;;;;;7.57;3.10;;;;;;;19.02;63.72;99274.63;5051922;28;20040;-81
2023/09/20 02:10:38;;;;;;;4.45;1.73;;;;;;;19.06;63.93;99269.25;5049555;28;20648;-80
2023/09/20 02:13:03;;;;;;;10.60;1.83;;;;;;;19.05;63.86;99266.81;5048807;28;20071;-80
2023/09/20 02:15:31;;;;;;;8.07;2.03;;;;;;;19.09;63.65;99267.75;5050435;28;20037;-81
2023/09/20 02:17:57;;;;;;;5.85;1.70;;;;;;;19.05;63.81;99277.88;5050443;28;20102;-82
2023/09/20 02:20:23;;;;;;;5.38;1.63;;;;;;;19.04;63.94;99262.44;5050725;28;20059;-82
2023/09/20 02:22:54;;;;;;;5.30;1.90;;;;;;;18.99;64.17;99258.72;5048871;28;20032;-81
2023/09/20 02:25:20;;;;;;;5.55;1.90;;;;;;;18.95;64.26;99256.97;5048078;28;20525;-82
2023/09/20 02:27:47;;;;;;;8.13;1.95;;;;;;;18.90;64.33;99256.00;5051728;28;20108;-80
2023/09/20 02:30:17;;;;;;;4.82;1.80;;;;;;;18.73;64.99;99267.16;5051811;28;20029;-81
2023/09/20 02:32:43;;;;;;;7.35;2.58;;;;;;;18.69;65.10;99261.50;5051308;28;20025;-81
2023/09/20 02:35:09;;;;;;;5.13;2.17;;;;;;;18.75;65.16;99265.66;5050951;28;20033;-80
2023/09/20 02:37:35;;;;;;;7.15;2.17;;;;;;;18.69;65.27;99253.22;5051232;28;20063;-81
2023/09/20 02:40:46;;;;;;;3.10;1.52;;;;;;;18.74;65.31;99253.03;5048566;28;20462;-81
2023/09/20 02:42:54;;;;;;;4.93;1.80;;;;;;;18.72;65.15;99247.03;5051390;28;20700;-80
2023/09/20 02:45:22;;;;;;;6.90;1.70;;;;;;;18.70;65.39;99251.25;5051234;28;20082;-81
2023/09/20 02:47:48;;;;;;;5.20;2.22;;;;;;;18.69;65.50;99250.47;5050420;28;20021;-80
2023/09/20 02:50:16;;;;;;;4.50;1.75;;;;;;;18.74;65.42;99247.50;5049999;28;20541;-80
2023/09/20 02:52:45;;;;;;;8.20;3.00;;;;;;;18.72;65.35;99244.25;5051514;28;20025;-81
2023/09/20 02:55:12;;;;;;;5.68;2.33;;;;;;;18.82;65.19;99236.72;5049430;28;20041;-80
2023/09/20 02:57:38;;;;;;;3.90;1.80;;;;;;;18.80;65.30;99237.06;5051222;28;20090;-81
2023/09/20 03:00:14;;;;;;;9.55;2.47;;;;;;;18.80;65.35;99242.59;5051204;28;20028;-80
2023/09/20 03:02:43;;;;;;;4.38;1.85;;;;;;;18.82;65.23;99237.53;5047590;28;20017;-81
2023/09/20 03:05:08;;;;;;;6.85;1.77;;;;;;;18.80;65.27;99239.81;5050009;28;20053;-81
2023/09/20 03:07:33;;;;;;;13.88;3.00;;;;;;;18.83;65.49;99235.59;5051004;28;20040;-83
2023/09/20 03:09:59;;;;;;;6.53;2.30;;;;;;;18.82;65.40;99231.19;5051131;28;20037;-80
2023/09/20 03:12:26;;;;;;;7.40;2.00;;;;;;;18.78;65.27;99226.38;5049876;28;20647;-81
2023/09/20 03:14:53;;;;;;;5.82;1.45;;;;;;;18.74;65.64;99224.59;5050214;28;20028;-80
2023/09/20 03:17:19;;;;;;;13.90;3.45;;;;;;;18.79;65.56;99232.69;5050298;28;20037;-79
2023/09/20 03:19:45;;;;;;;6.43;1.50;;;;;;;18.72;65.76;99215.84;5049535;28;20025;-80
2023/09/20 03:22:13;;;;;;;8.35;1.92;;;;;;;18.71;65.70;99231.63;5053240;28;20036;-81
2023/09/20 03:24:40;;;;;;;6.57;1.98;;;;;;;18.70;65.88;99229.97;5048372;28;20031;-79
2023/09/20 03:27:05;;;;;;;7.43;2.42;;;;;;;18.70;66.00;99223.63;5051783;28;20075;-81
2023/09/20 03:29:31;;;;;;;8.20;2.40;;;;;;;18.65;66.07;99210.84;5053356;28;20033;-80
2023/09/20 03:31:57;;;;;;;3.67;1.60;;;;;;;18.68;66.04;99215.69;5054262;28;20036;-80
2023/09/20 03:34:22;;;;;;;4.78;1.73;;;;;;;18.64;66.28;99214.75;5050912;28;20033;-80
2023/09/20 03:36:50;;;;;;;6.07;2.03;;;;;;;18.72;66.18;99215.84;5054931;28;20033;-79
2023/09/20 03:39:15;;;;;;;6.60;2.10;;;;;;;18.60;66.49;99214.59;5053624;28;20755;-80
2023/09/20 03:41:40;;;;;;;7.28;1.60;;;;;;;18.59;66.87;99214.94;5051926;28;20021;-80
2023/09/20 03:44:06;;;;;;;3.27;1.47;;;;;;;18.53;66.39;99204.06;5047622;28;20029;-79
2023/09/20 03:46:32;;;;;;;6.78;1.70;;;;;;;18.54;66.70;99197.44;5047306;28;20337;-80
2023/09/20 03:48:58;;;;;;;5.95;2.08;;;;;;;18.55;66.59;99204.56;5051223;28;20029;-80
2023/09/20 03:51:23;;;;;;;11.50;2.25;;;;;;;18.60;66.64;99203.56;5052908;28;20025;-80
2023/09/20 03:53:49;;;;;;;7.70;2.00;;;;;;;18.58;66.26;99197.56;5054378;28;20029;-79
2023/09/20 03:56:14;;;;;;;7.13;2.40;;;;;;;18.43;66.65;99198.94;5051582;28;20257;-80
2023/09/20 03:58:40;;;;;;;4.55;2.10;;;;;;;18.47;66.79;99191.59;5053299;28;20021;-80
2023/09/20 04:01:05;;;;;;;7.15;1.98;;;;;;;18.41;67.02;99195.69;5053491;28;20029;-80
2023/09/20 04:03:34;;;;;;;15.40;2.38;;;;;;;18.42;66.99;99192.63;5053086;28;20104;-80
2023/09/20 04:06:00;;;;;;;7.25;1.73;;;;;;;18.42;66.88;99176.06;5052232;28;20144;-79
2023/09/20 04:08:25;;;;;;;7.15;2.28;;;;;;;18.43;67.05;99179.63;5053067;28;20033;-80
2023/09/20 04:10:51;;;;;;;9.02;2.05;;;;;;;18.30;67.38;99179.53;5053230;28;20029;-79
2023/09/20 04:13:16;;;;;;;6.53;2.67;;;;;;;18.35;67.15;99175.75;5052449;28;20494;-80
2023/09/20 04:15:42;;;;;;;8.23;2.03;;;;;;;18.36;67.09;99177.41;5053936;28;20274;-80
2023/09/20 04:18:08;;;;;;;4.97;1.70;;;;;;;18.30;67.30;99178.72;5052649;28;20743;-79
2023/09/20 04:20:34;;;;;;;3.83;1.58;;;;;;;18.30;67.34;99162.16;5053208;28;20033;-80
2023/09/20 04:22:59;;;;;;;5.78;2.50;;;;;;;18.31;67.53;99161.81;5053115;28;20527;-80
2023/09/20 04:25:25;;;;;;;9.35;2.25;;;;;;;18.34;67.59;99163.13;5052264;28;20025;-79
2023/09/20 04:27:50;;;;;;;7.72;2.20;;;;;;;18.36;67.74;99157.25;5053324;28;20037;-79
2023/09/20 04:30:17;;;;;;;4.25;1.67;;;;;;;18.38;67.65;99152.22;5051583;28;20025;-81
2023/09/20 04:32:43;;;;;;;10.27;2.00;;;;;;;18.39;67.42;99156.59;5052720;28;20033;-79
2023/09/20 04:35:08;;;;;;;5.45;1.80;;;;;;;18.40;67.34;99150.75;5051526;28;20031;-79
2023/09/20 04:37:34;;;;;;;11.57;2.05;;;;;;;18.40;67.38;99153.50;5052514;28;20029;-79
2023/09/20 04:40:00;;;;;;;8.15;1.92;;;;;;;18.38;67.65;99157.75;5052379;28;20025;-79
2023/09/20 04:42:32;;;;;;;7.60;1.98;;;;;;;18.49;67.29;99167.25;5052208;28;20039;-80
2023/09/20 04:44:58;;;;;;;5.73;1.73;;;;;;;18.49;67.23;99158.97;5052012;28;20469;-79
2023/09/20 04:47:24;;;;;;;5.97;2.13;;;;;;;18.54;67.09;99160.72;5053322;28;20055;-80
2023/09/20 04:49:49;;;;;;;3.63;1.63;;;;;;;18.46;67.24;99162.41;5052657;28;20108;-80
2023/09/20 04:52:15;;;;;;;5.30;1.77;;;;;;;18.46;67.27;99167.09;5052175;28;20636;-81
2023/09/20 04:54:43;;;;;;;5.97;2.08;;;;;;;18.29;68.04;99155.84;5049367;28;20309;-81
2023/09/20 04:57:08;;;;;;;7.85;2.50;;;;;;;18.29;68.00;99166.88;5052208;28;20403;-79
2023/09/20 04:59:34;;;;;;;8.18;2.13;;;;;;;18.35;67.98;99166.66;5052234;28;20037;-80
2023/09/20 05:01:59;;;;;;;4.60;2.03;;;;;;;18.37;67.92;99167.97;5052555;28;20039;-80
2023/09/20 05:04:25;;;;;;;4.63;1.73;;;;;;;18.36;67.94;99165.53;5049502;28;20250;-77
2023/09/20 05:06:53;;;;;;;13.15;2.55;;;;;;;18.33;68.18;99155.97;5052898;28;20048;-81
2023/09/20 05:09:18;;;;;;;3.28;1.80;;;;;;;18.40;67.89;99170.06;5051330;28;20390;-80
2023/09/20 05:11:45;;;;;;;4.03;1.88;;;;;;;18.41;67.99;99170.84;5052052;28;20039;-80
2023/09/20 05:14:10;;;;;;;6.82;1.63;;;;;;;18.31;68.18;99174.81;5052178;28;20100;-79
2023/09/20 05:16:35;;;;;;;6.37;2.23;;;;;;;18.26;68.66;99167.53;5051793;28;20107;-80
2023/09/20 05:19:01;;;;;;;3.28;1.23;;;;;;;18.17;69.07;99177.78;5052152;28;20620;-80
2023/09/20 05:21:26;;;;;;;3.92;1.73;;;;;;;18.26;68.62;99172.25;5052429;28;20058;-81
2023/09/20 05:23:51;;;;;;;6.10;1.33;;;;;;;18.31;68.69;99172.03;5049188;28;20025;-81
2023/09/20 05:26:21;;;;;;;5.75;1.83;;;;;;;18.32;68.46;99159.88;5049289;28;20021;-81
2023/09/20 05:28:47;;;;;;;8.73;1.80;;;;;;;18.36;68.48;99173.81;5053606;28;20033;-82
2023/09/20 05:31:14;;;;;;;4.88;2.10;;;;;;;18.41;68.49;99168.09;5052467;28;20028;-81
2023/09/20 05:33:39;;;;;;;8.18;1.80;;;;;;;18.39;68.36;99170.38;5051876;28;20031;-83
2023/09/20 05:36:05;;;;;;;6.20;2.05;;;;;;;18.42;68.44;99172.50;5055563;28;20478;-79
2023/09/20 05:38:30;;;;;;;7.85;1.50;;;;;;;18.41;68.81;99173.63;5050601;28;20041;-79
2023/09/20 05:40:56;;;;;;;6.70;2.00;;;;;;;18.39;68.81;99164.88;5050317;28;20045;-81
2023/09/20 05:43:21;;;;;;;4.90;1.65;;;;;;;18.35;68.97;99170.25;5050845;28;20109;-77
2023/09/20 05:45:46;;;;;;;4.63;1.40;;;;;;;18.33;69.11;99157.94;5047631;28;20414;-79
2023/09/20 05:48:12;;;;;;;6.53;1.80;;;;;;;18.37;68.72;99156.94;5051305;28;20068;-82
2023/09/20 05:50:38;;;;;;;7.85;1.83;;;;;;;18.44;68.64;99156.41;5052300;28;20250;-79
2023/09/20 05:53:11;;;;;;;4.07;1.63;;;;;;;18.50;68.57;99165.31;5051634;28;20095;-80
2023/09/20 05:55:43;;;;;;;6.75;2.33;;;;;;;18.47;68.79;99166.78;5048817;28;20032;-80
2023/09/20 05:58:09;;;;;;;5.80;1.90;;;;;;;18.39;68.71;99159.34;5044326;28;20659;-81
2023/09/20 06:00:35;;;;;;;5.53;1.90;;;;;;;18.48;68.90;99165.66;5045461;28;20106;-80
2023/09/20 06:03:00;;;;;;;6.22;2.00;;;;;;;18.30;69.32;99157.47;5047526;28;20032;-80
2023/09/20 06:05:26;;;;;;;10.00;2.38;;;;;;;18.41;68.94;99154.31;5047386;28;20048;-80
2023/09/20 06:07:53;;;;;;;4.03;1.58;;;;;;;18.43;68.79;99150.06;5047383;28;20771;-81
2023/09/20 06:10:19;;;;;;;5.35;1.55;;;;;;;18.43;68.99;99149.25;5047320;28;20033;-80
2023/09/20 06:12:46;;;;;;;8.40;1.73;;;;;;;18.49;68.60;99164.50;5046168;28;20044;-79
2023/09/20 06:15:13;;;;;;;3.78;1.90;;;;;;;18.40;69.13;99158.22;5042361;28;20044;-81
2023/09/20 06:17:39;;;;;;;6.90;2.53;;;;;;;18.52;69.11;99168.53;5043325;28;20041;-81
2023/09/20 06:20:08;;;;;;;6.00;2.03;;;;;;;18.47;69.11;99163.22;5042751;28;20032;-81
2023/09/20 06:22:34;;;;;;;7.72;1.77;;;;;;;18.49;68.63;99158.97;5043687;28;20308;-80
2023/09/20 06:25:01;;;;;;;7.28;1.75;;;;;;;18.58;69.13;99155.34;5042432;28;20029;-80
2023/09/20 06:27:26;;;;;;;6.20;2.03;;;;;;;18.59;68.84;99151.47;5042265;28;20052;-80
2023/09/20 06:29:52;;;;;;;4.97;1.40;;;;;;;18.57;69.01;99154.53;5042800;28;20029;-81
2023/09/20 06:32:17;;;;;;;5.78;1.75;;;;;;;18.61;69.08;99154.69;5042471;28;20041;-75
2023/09/20 06:34:43;;;;;;;12.75;2.00;;;;;;;18.64;68.97;99148.50;5042610;28;20059;-82
2023/09/20 06:37:11;;;;;;;8.10;2.05;;;;;;;18.54;69.18;99161.56;5042920;28;20037;-82
2023/09/20 06:39:36;;;;;;;5.28;2.13;;;;;;;18.72;68.81;99155.09;5043226;28;20032;-82
2023/09/20 06:42:02;;;;;;;7.50;2.17;;;;;;;18.65;68.67;99161.16;5043455;28;20047;-82
2023/09/20 06:44:27;;;;;;;6.57;1.98;;;;;;;18.83;68.55;99163.81;5043928;28;20258;-82
2023/09/20 06:46:53;;;;;;;7.28;1.77;;;;;;;18.91;67.98;99162.94;5050116;28;20584;-82
2023/09/20 06:49:18;;;;;;;3.80;1.92;;;;;;;18.92;68.34;99158.19;5043037;28;20405;-82
2023/09/20 06:51:43;;;;;;;4.07;1.58;;;;;;;18.90;68.37;99167.66;5042832;28;20102;-81
2023/09/20 06:54:09;;;;;;;4.83;1.70;;;;;;;18.86;68.11;99168.66;5041862;28;20043;-81
2023/09/20 06:56:35;;;;;;;5.10;1.65;;;;;;;18.78;68.59;99168.38;5044357;28;20258;-81
2023/09/20 06:59:01;;;;;;;7.32;1.90;;;;;;;18.87;68.34;99159.22;5046662;28;20080;-81
2023/09/20 07:01:26;;;;;;;9.35;2.28;;;;;;;18.85;68.19;99164.28;5046368;28;20211;-76
2023/09/20 07:03:54;;;;;;;6.15;1.67;;;;;;;18.89;68.48;99165.22;5046509;28;20033;-78
2023/09/20 07:06:20;;;;;;;7.45;2.20;;;;;;;18.98;68.13;99163.19;5047985;28;20064;-77
2023/09/20 07:08:45;;;;;;;3.65;1.60;;;;;;;18.97;68.12;99161.59;5048553;28;20032;-77
2023/09/20 07:11:13;;;;;;;5.45;1.75;;;;;;;18.98;68.01;99168.72;5049596;28;20033;-77
2023/09/20 07:13:38;;;;;;;5.32;1.50;;;;;;;18.97;67.88;99172.66;5046488;28;20040;-73
2023/09/20 07:16:06;;;;;;;8.85;2.03;;;;;;;19.01;67.72;99167.25;5044745;28;20047;-74
2023/09/20 07:18:32;;;;;;;5.28;2.25;;;;;;;18.99;67.79;99166.78;5045296;28;20041;-72
2023/09/20 07:20:57;;;;;;;5.72;1.58;;;;;;;18.96;68.14;99167.44;5045252;28;20041;-73
2023/09/20 07:23:23;;;;;;;6.70;2.37;;;;;;;18.96;67.76;99159.97;5045305;28;20048;-74
2023/09/20 07:25:52;;;;;;;3.88;1.63;;;;;;;19.04;67.82;99163.03;5045087;28;20333;-73
2023/09/20 07:28:17;;;;;;;8.32;2.00;;;;;;;19.08;67.53;99156.47;5045368;28;20498;-73
2023/09/20 07:30:46;;;;;;;9.90;1.88;;;;;;;19.18;67.16;99166.31;5045398;28;20147;-73
2023/09/20 07:33:14;;;;;;;7.90;2.25;;;;;;;19.29;66.79;99154.84;5044570;28;20033;-74
2023/09/20 07:35:49;;;;;;;7.57;1.80;;;;;;;19.15;67.15;99158.72;5044582;28;20041;-74
2023/09/20 07:38:20;;;;;;;7.85;1.45;;;;;;;19.20;67.11;99152.19;5045313;28;20056;-74
2023/09/20 07:40:50;;;;;;;5.22;1.95;;;;;;;19.37;66.80;99153.97;5045016;28;20064;-74
2023/09/20 07:43:15;;;;;;;3.92;1.77;;;;;;;19.47;66.86;99156.31;5044681;28;20689;-74
2023/09/20 07:45:41;;;;;;;4.60;1.50;;;;;;;19.43;66.58;99149.84;5044467;28;20032;-74
2023/09/20 07:48:12;;;;;;;5.75;2.45;;;;;;;19.47;66.62;99153.56;5044476;28;20037;-74
2023/09/20 07:50:49;;;;;;;7.70;1.88;;;;;;;19.56;66.09;99141.59;5044972;28;20040;-75
2023/09/20 07:53:15;;;;;;;3.13;1.40;;;;;;;19.65;66.07;99133.22;5044863;28;20032;-73
2023/09/20 07:55:45;;;;;;;5.65;1.60;;;;;;;19.68;66.10;99141.66;5044539;28;20044;-74
2023/09/20 07:58:15;;;;;;;5.95;3.15;;;;;;;19.74;66.15;99133.94;5045152;28;20033;-75
2023/09/20 08:00:44;;;;;;;5.25;1.88;;;;;;;19.87;65.41;99134.75;5045031;28;20041;-73
2023/09/20 08:03:11;;;;;;;4.38;2.10;;;;;;;19.84;65.22;99140.97;5045259;28;20109;-74
2023/09/20 08:05:37;;;;;;;4.47;1.77;;;;;;;19.84;65.40;99135.44;5043956;28;20041;-73
2023/09/20 08:08:06;;;;;;;5.03;1.58;;;;;;;19.74;65.80;99141.41;5043580;28;20044;-74
2023/09/20 08:10:33;;;;;;;4.65;1.48;;;;;;;19.77;65.66;99141.53;5044772;28;20480;-76
2023/09/20 08:12:58;;;;;;;4.07;1.35;;;;;;;19.96;65.29;99140.19;5044520;28;20402;-75
2023/09/20 08:15:24;;;;;;;11.98;2.47;;;;;;;20.08;64.86;99144.13;5042945;28;20036;-73
2023/09/20 08:20:37;;;;;;;3.55;1.48;;;;;;;20.16;64.54;99141.25;5044147;28;20456;-74
2023/09/20 09:01:36;;;;;;;5.40;1.55;;;;;;;20.80;62.96;99159.44;5043813;28;20528;-73
2023/09/20 09:04:02;;;;;;;5.88;1.77;;;;;;;20.82;62.82;99176.53;5043529;28;20040;-72
2023/09/20 09:06:27;;;;;;;7.60;1.33;;;;;;;20.85;62.89;99170.28;5043841;28;20123;-72
2023/09/20 09:08:53;;;;;;;5.00;1.52;;;;;;;20.89;62.26;99173.16;5043675;28;20068;-72
2023/09/20 09:11:18;;;;;;;4.27;1.10;;;;;;;20.94;62.27;99172.09;5043215;28;20037;-72
2023/09/20 09:13:43;;;;;;;3.45;1.30;;;;;;;21.08;62.58;99171.75;5043398;28;20266;-71
2023/09/20 09:16:08;;;;;;;2.53;1.10;;;;;;;20.94;62.42;99178.47;5043650;28;20036;-72
2023/09/20 09:18:34;;;;;;;3.43;1.53;;;;;;;20.91;62.44;99172.81;5043184;28;20265;-73
2023/09/20 09:21:00;;;;;;;6.30;1.70;;;;;;;20.99;62.46;99169.13;5043601;28;20311;-72
2023/09/20 09:23:37;;;;;;;4.63;1.63;;;;;;;21.14;61.92;99175.09;5042120;28;20056;-72
2023/09/20 09:26:03;;;;;;;6.97;1.67;;;;;;;21.19;62.28;99172.06;5043255;28;20087;-72
2023/09/20 09:28:31;;;;;;;4.10;1.33;;;;;;;21.21;62.16;99164.22;5043302;28;20033;-73
2023/09/20 09:30:57;;;;;;;4.00;1.20;;;;;;;21.19;61.84;99166.53;5042456;28;20029;-72
2023/09/20 09:33:22;;;;;;;4.40;1.13;;;;;;;21.11;61.62;99151.66;5043124;28;20036;-72
2023/09/20 09:35:48;;;;;;;5.25;1.42;;;;;;;21.07;62.09;99165.41;5042493;28;20398;-72
2023/09/20 09:38:21;;;;;;;4.18;1.13;;;;;;;21.07;61.68;99154.31;5043316;28;20037;-72
2023/09/20 09:40:55;;;;;;;2.40;1.10;;;;;;;21.03;62.22;99164.47;5043322;28;20037;-72
2023/09/20 09:43:23;;;;;;;5.53;1.45;;;;;;;21.07;62.24;99167.38;5042737;28;20051;-73
2023/09/20 09:45:49;;;;;;;5.82;1.38;;;;;;;21.05;62.06;99167.72;5042859;28;20080;-72
2023/09/20 09:48:16;;;;;;;8.05;1.13;;;;;;;21.04;62.18;99163.34;5042521;28;20033;-73
2023/09/20 09:50:45;;;;;;;4.65;1.27;;;;;;;21.06;62.10;99152.72;5042802;28;20481;-72
2023/09/20 09:53:12;;;;;;;7.82;1.50;;;;;;;21.18;61.75;99149.09;5042633;28;20040;-72
2023/09/20 09:55:38;;;;;;;5.43;1.52;;;;;;;21.26;62.10;99166.72;5040577;28;20033;-73
2023/09/20 09:58:04;;;;;;;4.53;1.23;;;;;;;21.33;61.51;99150.31;5042303;28;20075;-73
2023/09/20 10:00:32;;;;;;;4.88;1.35;;;;;;;21.49;61.48;99152.31;5042591;28;20544;-72
2023/09/20 10:03:06;;;;;;;4.00;1.00;;;;;;;21.52;61.19;99159.91;5042750;28;20102;-72
2023/09/20 10:05:33;;;;;;;3.03;1.15;;;;;;;21.50;60.98;99144.81;5042353;28;20052;-71
2023/09/20 10:08:01;;;;;;;3.25;1.25;;;;;;;21.42;61.12;99129.91;5042740;28;20041;-72
2023/09/20 10:10:27;;;;;;;4.20;1.48;;;;;;;21.37;60.90;99135.75;5042701;28;20045;-71
2023/09/20 10:12:53;;;;;;;2.35;1.00;;;;;;;21.48;61.54;99145.16;5042796;28;20029;-71
2023/09/20 10:15:19;;;;;;;4.63;1.50;;;;;;;21.58;61.08;99139.09;5042312;28;20107;-72
2023/09/20 10:17:50;;;;;;;3.45;1.25;;;;;;;21.69;61.34;99144.13;5042980;28;20056;-72
2023/09/20 10:20:16;;;;;;;4.07;1.33;;;;;;;21.57;61.38;99137.50;5042576;28;20155;-72
2023/09/20 10:22:45;;;;;;;2.65;1.00;;;;;;;21.67;61.20;99143.66;5041286;28;20039;-71
2023/09/20 10:25:36;;;;;;;7.95;1.60;;;;;;;21.64;61.22;99142.41;5041990;28;20033;-71
2023/09/20 10:28:04;;;;;;;1.83;1.00;;;;;;;21.60;61.06;99137.94;5042799;28;20045;-73
2023/09/20 10:30:34;;;;;;;16.88;3.05;;;;;;;21.49;61.42;99149.53;5042070;28;20041;-72
2023/09/20 10:33:03;;;;;;;3.33;0.98;;;;;;;21.55;61.26;99155.63;5042504;28;20062;-72
2023/09/20 10:35:30;;;;;;;3.95;1.27;;;;;;;21.44;61.71;99149.78;5042175;28;20033;-72
2023/09/20 10:38:23;;;;;;;3.63;1.17;;;;;;;21.58;61.79;99149.41;5042608;28;20033;-71
2023/09/20 10:40:49;;;;;;;4.68;1.33;;;;;;;21.55;61.80;99147.31;5041232;28;20072;-71
2023/09/20 10:43:16;;;;;;;3.70;1.30;;;;;;;21.48;61.78;99139.59;5040863;28;20064;-71
2023/09/20 10:45:49;;;;;;;4.75;1.58;;;;;;;21.70;61.40;99138.22;5041653;28;20033;-71
2023/09/20 10:48:18;;;;;;;3.15;1.15;;;;;;;21.77;61.11;99128.47;5042543;28;20092;-71
2023/09/20 10:50:47;;;;;;;2.50;1.33;;;;;;;21.83;60.55;99131.81;5042311;28;20041;-71
2023/09/20 10:53:13;;;;;;;3.88;1.40;;;;;;;21.93;60.68;99125.72;5042146;28;20036;-71
2023/09/20 10:55:38;;;;;;;4.00;1.08;;;;;;;22.03;60.69;99118.81;5041854;28;20086;-71
2023/09/20 10:58:05;;;;;;;6.88;1.08;;;;;;;22.19;60.61;99109.69;5041995;28;20037;-71
2023/09/20 11:00:34;;;;;;;3.60;1.40;;;;;;;22.33;60.49;99107.28;5042499;28;20032;-71
2023/09/20 11:03:03;;;;;;;9.20;1.90;;;;;;;22.46;59.98;99107.13;5042141;28;20064;-71
2023/09/20 11:05:29;;;;;;;5.15;1.40;;;;;;;22.59;58.95;99099.50;5041572;28;20049;-71
2023/09/20 11:07:55;;;;;;;43.88;5.10;;;;;;;22.53;59.39;99104.53;5041792;28;20041;-72
2023/09/20 11:10:21;;;;;;;4.07;1.20;;;;;;;22.36;58.92;99114.06;5041742;28;20036;-71
2023/09/20 11:12:47;;;;;;;3.42;1.38;;;;;;;22.32;58.54;99102.06;5041844;28;20036;-71
2023/09/20 11:15:15;;;;;;;4.18;1.42;;;;;;;22.42;58.85;99107.06;5040649;28;20032;-71
2023/09/20 11:17:41;;;;;;;2.88;1.58;;;;;;;22.39;59.00;99093.91;5041673;28;20087;-71
2023/09/20 11:20:07;;;;;;;5.35;1.42;;;;;;;22.42;58.68;99104.28;5041477;28;20198;-72
2023/09/20 11:22:32;;;;;;;4.60;1.48;;;;;;;22.54;59.08;99106.13;5041411;28;20037;-71
2023/09/20 11:25:00;;;;;;;4.03;1.80;;;;;;;22.65;58.50;99097.22;5041384;28;20033;-71
2023/09/20 11:27:26;;;;;;;3.22;1.33;;;;;;;22.55;58.40;99088.31;5041886;28;20033;-71
2023/09/20 11:29:52;;;;;;;2.53;1.13;;;;;;;22.63;59.05;99095.63;5041567;28;20482;-71
2023/09/20 11:32:21;;;;;;;3.00;1.25;;;;;;;22.66;58.44;99082.22;5041458;28;20140;-71
2023/09/20 11:34:49;;;;;;;4.20;1.13;;;;;;;22.70;58.47;99089.44;5041558;28;20075;-71
2023/09/20 11:37:18;;;;;;;2.63;1.20;;;;;;;22.86;58.06;99081.03;5041577;28;20533;-72
2023/09/20 11:39:48;;;;;;;2.70;1.30;;;;;;;22.98;57.97;99082.09;5041606;28;20456;-71
2023/09/20 11:42:28;;;;;;;5.82;1.45;;;;;;;22.82;57.49;99085.72;5041412;28;20087;-71
2023/09/20 11:45:03;;;;;;;4.60;1.33;;;;;;;22.74;57.40;99084.75;5044755;28;20549;-71
2023/09/20 11:47:34;;;;;;;2.45;0.98;;;;;;;22.73;56.09;99082.34;5045104;28;20033;-71
2023/09/20 11:50:00;;;;;;;5.90;1.92;;;;;;;22.82;56.24;99084.94;5045214;28;20036;-71
2023/09/20 11:52:27;;;;;;;2.40;0.85;;;;;;;22.85;56.69;99079.44;5044765;28;21224;-71
2023/09/20 11:54:57;;;;;;;3.13;1.45;;;;;;;22.87;55.86;99076.28;5044812;28;20044;-72
2023/09/20 11:57:24;;;;;;;4.30;1.58;;;;;;;23.01;55.17;99074.97;5043756;28;20115;-73
2023/09/20 11:59:50;;;;;;;6.60;1.75;;;;;;;22.95;53.47;99086.38;5043627;28;20032;-72
2023/09/20 12:02:16;;;;;;;3.25;1.30;;;;;;;22.86;53.32;99069.16;5045363;28;20037;-81
2023/09/20 12:04:41;;;;;;;4.43;0.90;;;;;;;23.12;54.12;99064.88;5045040;28;20090;-79
2023/09/20 12:07:07;;;;;;;2.97;1.40;;;;;;;23.26;54.10;99078.25;5044573;28;20506;-80
2023/09/20 12:09:34;;;;;;;4.88;1.40;;;;;;;23.44;54.40;99070.25;5045641;28;20281;-80
2023/09/20 12:11:59;;;;;;;2.78;0.90;;;;;;;23.55;55.15;99069.66;5045813;28;20120;-80
2023/09/20 12:14:24;;;;;;;3.90;1.20;;;;;;;23.58;54.55;99074.47;5044867;28;20112;-80
2023/09/20 12:16:50;;;;;;;3.42;1.33;;;;;;;23.57;54.52;99067.31;5045757;28;20032;-80
2023/09/20 12:19:16;;;;;;;2.95;1.27;;;;;;;23.62;54.02;99064.19;5043699;28;20347;-80